Terminal Aerodrome Forecast
Issued by NWS

Home | Current Version | Previous Version | Text Only | Print | Product List | Glossary On
Versions: 1 2 3 4 5 6 7 8 9 10 11 12 13 14 15 16 17 18 19
000
FTUS43 KMPX 231500 AAB
TAFRNH
TAF AMD
KRNH 231507Z 2315/2412 17006KT 1/4SM FG VV001
     FM231700 24005KT 2SM BR OVC003
     FM232200 31007KT 4SM -RA BR OVC006
     FM240500 32013G23KT 1 1/2SM -SN BR OVC005=

USA.gov is the U.S. government's official web portal to all federal, state and local government web resources and services.